DHK818 EGLL-EDDP
Flight info
| Callsign | DHK818 |
|---|---|
| Flight time | 1h 21m |
| Altitude | 35000 |
| Route | BPK Q295 BRAIN M197 REDFA DCT TACHA DCT AMSAN DCT NORTA/N0404F230 DCT ADMOS T959 KOJEC KOJEC1V |
| Aircraft | B77L/H-SDE1E2E3FGHIJ2J3J4J5M1RWXY/LB1D1 |
Departure
| Time | 2026-05-06 12:44 |
|---|---|
| Airport | London Heathrow Airport (EGLL) |
Arrival
| Time | 2026-05-06 14:06 |
|---|---|
| Airport | Leipzig/Halle Airport (EDDP) |
| Time | Latitude | Longitude | Altitude | Speed | Heading |
|---|---|---|---|---|---|
| 2026-05-06 11:43 | 51.46025 | -0.47372 | 84 ft | 0 kts | 235° |
| 2026-05-06 12:31 | 51.46025 | -0.47371 | 84 ft | 0 kts | 235° |
| 2026-05-06 12:32 | 51.46030 | -0.47360 | 84 ft | 2 kts | 235° |
| 2026-05-06 12:32 | 51.46039 | -0.47340 | 84 ft | 2 kts | 235° |
| 2026-05-06 12:32 | 51.46046 | -0.47319 | 84 ft | 2 kts | 263° |
| 2026-05-06 12:32 | 51.46045 | -0.47295 | 84 ft | 2 kts | 290° |
| 2026-05-06 12:33 | 51.46038 | -0.47275 | 84 ft | 2 kts | 318° |
| 2026-05-06 12:33 | 51.46025 | -0.47262 | 84 ft | 2 kts | 345° |
| 2026-05-06 12:33 | 51.46017 | -0.47260 | 84 ft | 1 kts | 0° |
| 2026-05-06 12:33 | 51.46014 | -0.47260 | 84 ft | 0 kts | 359° |
| 2026-05-06 12:37 | 51.46029 | -0.47260 | 84 ft | 7 kts | 359° |
| 2026-05-06 12:38 | 51.46102 | -0.47262 | 84 ft | 9 kts | 0° |
| 2026-05-06 12:38 | 51.46164 | -0.47262 | 84 ft | 8 kts | 359° |
| 2026-05-06 12:38 | 51.46220 | -0.47264 | 84 ft | 7 kts | 359° |
| 2026-05-06 12:38 | 51.46270 | -0.47265 | 84 ft | 6 kts | 355° |
| 2026-05-06 12:39 | 51.46308 | -0.47303 | 84 ft | 7 kts | 302° |
| 2026-05-06 12:39 | 51.46331 | -0.47392 | 84 ft | 9 kts | 285° |
| 2026-05-06 12:39 | 51.46338 | -0.47510 | 84 ft | 10 kts | 271° |
| 2026-05-06 12:39 | 51.46334 | -0.47619 | 84 ft | 9 kts | 256° |
| 2026-05-06 12:40 | 51.46308 | -0.47710 | 84 ft | 8 kts | 241° |
| 2026-05-06 12:40 | 51.46278 | -0.47795 | 84 ft | 9 kts | 240° |
| 2026-05-06 12:40 | 51.46252 | -0.47910 | 84 ft | 12 kts | 265° |
| 2026-05-06 12:40 | 51.46250 | -0.48060 | 84 ft | 14 kts | 270° |
| 2026-05-06 12:41 | 51.46250 | -0.48217 | 84 ft | 13 kts | 270° |
| 2026-05-06 12:41 | 51.46249 | -0.48358 | 84 ft | 12 kts | 270° |
| 2026-05-06 12:41 | 51.46249 | -0.48485 | 84 ft | 10 kts | 271° |
| 2026-05-06 12:41 | 51.46258 | -0.48598 | 83 ft | 9 kts | 285° |
| 2026-05-06 12:42 | 51.46288 | -0.48689 | 84 ft | 9 kts | 312° |
| 2026-05-06 12:42 | 51.46345 | -0.48743 | 84 ft | 10 kts | 345° |
| 2026-05-06 12:42 | 51.46410 | -0.48752 | 84 ft | 8 kts | 2° |
| 2026-05-06 12:42 | 51.46464 | -0.48719 | 84 ft | 7 kts | 45° |
| 2026-05-06 12:43 | 51.46482 | -0.48641 | 84 ft | 7 kts | 88° |
| 2026-05-06 12:43 | 51.46479 | -0.48563 | 84 ft | 4 kts | 91° |
| 2026-05-06 12:44 | 51.46478 | -0.48449 | 84 ft | 31 kts | 91° |
| 2026-05-06 12:44 | 51.46482 | -0.47574 | 84 ft | 126 kts | 90° |
| 2026-05-06 12:44 | 51.46484 | -0.45712 | 172 ft | 202 kts | 89° |
| 2026-05-06 12:44 | 51.46453 | -0.43430 | 1283 ft | 213 kts | 85° |
| 2026-05-06 12:45 | 51.46570 | -0.41243 | 2464 ft | 200 kts | 70° |
| 2026-05-06 12:45 | 51.47191 | -0.39193 | 2988 ft | 214 kts | 50° |
| 2026-05-06 12:45 | 51.49217 | -0.35275 | 4292 ft | 246 kts | 48° |
| 2026-05-06 12:46 | 51.50317 | -0.33153 | 5155 ft | 254 kts | 50° |
| 2026-05-06 12:46 | 51.51411 | -0.30903 | 6081 ft | 260 kts | 51° |
| 2026-05-06 12:46 | 51.52515 | -0.28603 | 6987 ft | 265 kts | 51° |
| 2026-05-06 12:46 | 51.53635 | -0.26265 | 7865 ft | 270 kts | 51° |
| 2026-05-06 12:47 | 51.54779 | -0.23872 | 8721 ft | 276 kts | 51° |
| 2026-05-06 12:47 | 51.55962 | -0.21398 | 9560 ft | 281 kts | 51° |
| 2026-05-06 12:47 | 51.57141 | -0.18931 | 10325 ft | 287 kts | 51° |
| 2026-05-06 12:47 | 51.58384 | -0.16327 | 10816 ft | 304 kts | 51° |
| 2026-05-06 12:48 | 51.59703 | -0.13564 | 11308 ft | 321 kts | 51° |
| 2026-05-06 12:48 | 51.61106 | -0.10619 | 11833 ft | 337 kts | 51° |
| 2026-05-06 12:48 | 51.62552 | -0.07579 | 12363 ft | 353 kts | 51° |
| 2026-05-06 12:48 | 51.64069 | -0.04385 | 12899 ft | 368 kts | 51° |
| 2026-05-06 12:49 | 51.65657 | -0.01038 | 13525 ft | 381 kts | 51° |
| 2026-05-06 12:49 | 51.67274 | 0.02379 | 14342 ft | 387 kts | 51° |
| 2026-05-06 12:49 | 51.68900 | 0.05819 | 15168 ft | 393 kts | 51° |
| 2026-05-06 12:49 | 51.70548 | 0.09312 | 16007 ft | 399 kts | 51° |
| 2026-05-06 12:50 | 51.72237 | 0.12896 | 16810 ft | 405 kts | 51° |
| 2026-05-06 12:50 | 51.73948 | 0.16531 | 17583 ft | 410 kts | 51° |
| 2026-05-06 12:50 | 51.75641 | 0.20178 | 18359 ft | 416 kts | 54° |
| 2026-05-06 12:50 | 51.77074 | 0.24223 | 19094 ft | 422 kts | 64° |
| 2026-05-06 12:51 | 51.78068 | 0.28728 | 19809 ft | 428 kts | 75° |
| 2026-05-06 12:51 | 51.78595 | 0.33438 | 20555 ft | 433 kts | 82° |
| 2026-05-06 12:51 | 51.78990 | 0.38247 | 21317 ft | 437 kts | 82° |
| 2026-05-06 12:51 | 51.79378 | 0.43117 | 22002 ft | 442 kts | 82° |
| 2026-05-06 12:52 | 51.79769 | 0.48051 | 22704 ft | 446 kts | 82° |
| 2026-05-06 12:52 | 51.80164 | 0.53062 | 23380 ft | 451 kts | 82° |
| 2026-05-06 12:52 | 51.80558 | 0.58088 | 24043 ft | 455 kts | 82° |
| 2026-05-06 12:52 | 51.80953 | 0.63152 | 24709 ft | 459 kts | 82° |
| 2026-05-06 12:53 | 51.81564 | 0.68216 | 25349 ft | 463 kts | 77° |
| 2026-05-06 12:53 | 51.82328 | 0.73196 | 25930 ft | 467 kts | 76° |
| 2026-05-06 12:53 | 51.83128 | 0.78359 | 26547 ft | 471 kts | 76° |
| 2026-05-06 12:53 | 51.83921 | 0.83448 | 27146 ft | 475 kts | 75° |
| 2026-05-06 12:54 | 51.84848 | 0.88579 | 27763 ft | 479 kts | 73° |
| 2026-05-06 12:54 | 51.85813 | 0.93772 | 28367 ft | 483 kts | 73° |
| 2026-05-06 12:54 | 51.86769 | 0.98950 | 28971 ft | 487 kts | 73° |
| 2026-05-06 12:54 | 51.87733 | 1.04204 | 29650 ft | 489 kts | 73° |
| 2026-05-06 12:55 | 51.88690 | 1.09456 | 30525 ft | 487 kts | 73° |
| 2026-05-06 12:55 | 51.89601 | 1.14484 | 31387 ft | 483 kts | 73° |
| 2026-05-06 12:55 | 51.90526 | 1.19602 | 32150 ft | 479 kts | 73° |
| 2026-05-06 12:55 | 51.91470 | 1.24852 | 32839 ft | 477 kts | 73° |
| 2026-05-06 12:56 | 51.92387 | 1.29974 | 33411 ft | 476 kts | 73° |
| 2026-05-06 12:56 | 51.93316 | 1.35178 | 33989 ft | 475 kts | 73° |
| 2026-05-06 12:56 | 51.94221 | 1.40262 | 34551 ft | 474 kts | 73° |
| 2026-05-06 12:56 | 51.95140 | 1.45442 | 34922 ft | 476 kts | 73° |
| 2026-05-06 12:57 | 51.96043 | 1.50551 | 34953 ft | 476 kts | 73° |
| 2026-05-06 12:57 | 51.97844 | 1.60789 | 34960 ft | 472 kts | 73° |
| 2026-05-06 12:58 | 51.99620 | 1.71033 | 34948 ft | 473 kts | 76° |
| 2026-05-06 12:58 | 52.01231 | 1.81415 | 34950 ft | 473 kts | 76° |
| 2026-05-06 12:59 | 52.02813 | 1.91707 | 34958 ft | 473 kts | 76° |
| 2026-05-06 12:59 | 52.04399 | 2.02042 | 34954 ft | 473 kts | 76° |
| 2026-05-06 13:00 | 52.05974 | 2.12362 | 34949 ft | 473 kts | 76° |
| 2026-05-06 13:00 | 52.07550 | 2.22735 | 34944 ft | 473 kts | 76° |
| 2026-05-06 13:01 | 52.09118 | 2.33128 | 34943 ft | 472 kts | 76° |
| 2026-05-06 13:01 | 52.10682 | 2.43554 | 34945 ft | 473 kts | 76° |
| 2026-05-06 13:02 | 52.12347 | 2.53956 | 34944 ft | 472 kts | 72° |
| 2026-05-06 13:02 | 52.14328 | 2.64124 | 34941 ft | 473 kts | 72° |
| 2026-05-06 13:03 | 52.16314 | 2.74442 | 34939 ft | 473 kts | 73° |
| 2026-05-06 13:03 | 52.18257 | 2.84671 | 34940 ft | 473 kts | 73° |
| 2026-05-06 13:04 | 52.20176 | 2.94860 | 34941 ft | 473 kts | 73° |
| 2026-05-06 13:04 | 52.22091 | 3.05109 | 34941 ft | 473 kts | 73° |
| 2026-05-06 13:05 | 52.24007 | 3.15433 | 34937 ft | 473 kts | 73° |
| 2026-05-06 13:05 | 52.25437 | 3.25853 | 34938 ft | 472 kts | 86° |
| 2026-05-06 13:06 | 52.25456 | 3.36504 | 34939 ft | 471 kts | 91° |
| 2026-05-06 13:06 | 52.25330 | 3.47171 | 34934 ft | 471 kts | 91° |
| 2026-05-06 13:07 | 52.25190 | 3.57871 | 34926 ft | 471 kts | 91° |
| 2026-05-06 13:07 | 52.25042 | 3.68349 | 34926 ft | 471 kts | 92° |
| 2026-05-06 13:08 | 52.24881 | 3.78976 | 34920 ft | 470 kts | 92° |
| 2026-05-06 13:08 | 52.24710 | 3.89664 | 34923 ft | 471 kts | 92° |
| 2026-05-06 13:09 | 52.24530 | 4.00289 | 34922 ft | 471 kts | 92° |
| 2026-05-06 13:09 | 52.24340 | 4.10955 | 34913 ft | 471 kts | 92° |
| 2026-05-06 13:10 | 52.24140 | 4.21646 | 34909 ft | 471 kts | 92° |
| 2026-05-06 13:10 | 52.23931 | 4.32228 | 34898 ft | 471 kts | 92° |
| 2026-05-06 13:11 | 52.23712 | 4.42887 | 34899 ft | 471 kts | 92° |
| 2026-05-06 13:11 | 52.23482 | 4.53612 | 34898 ft | 471 kts | 92° |
| 2026-05-06 13:12 | 52.23246 | 4.64178 | 34894 ft | 471 kts | 92° |
| 2026-05-06 13:12 | 52.22998 | 4.74832 | 34883 ft | 470 kts | 93° |
| 2026-05-06 13:13 | 52.22743 | 4.85383 | 34885 ft | 470 kts | 93° |
| 2026-05-06 13:13 | 52.22485 | 4.95711 | 34877 ft | 470 kts | 93° |
| 2026-05-06 13:14 | 52.22211 | 5.06255 | 34881 ft | 470 kts | 93° |
| 2026-05-06 13:14 | 52.21924 | 5.16950 | 34881 ft | 470 kts | 93° |
| 2026-05-06 13:15 | 52.21643 | 5.27091 | 34880 ft | 470 kts | 93° |
| 2026-05-06 13:15 | 52.21342 | 5.37626 | 34878 ft | 471 kts | 93° |
| 2026-05-06 13:16 | 52.21029 | 5.48217 | 34874 ft | 470 kts | 93° |
| 2026-05-06 13:16 | 52.20711 | 5.58708 | 34878 ft | 470 kts | 93° |
| 2026-05-06 13:17 | 52.20390 | 5.68958 | 34873 ft | 470 kts | 94° |
| 2026-05-06 13:17 | 52.20058 | 5.79276 | 34872 ft | 470 kts | 94° |
| 2026-05-06 13:18 | 52.19729 | 5.89275 | 34879 ft | 470 kts | 94° |
| 2026-05-06 13:18 | 52.19343 | 5.99732 | 34872 ft | 470 kts | 98° |
| 2026-05-06 13:19 | 52.18347 | 6.10302 | 34869 ft | 470 kts | 100° |
| 2026-05-06 13:19 | 52.17305 | 6.20711 | 34862 ft | 469 kts | 100° |
| 2026-05-06 13:20 | 52.16243 | 6.31214 | 34861 ft | 470 kts | 100° |
| 2026-05-06 13:20 | 52.15184 | 6.41604 | 34866 ft | 469 kts | 100° |
| 2026-05-06 13:21 | 52.14108 | 6.52050 | 34857 ft | 470 kts | 100° |
| 2026-05-06 13:21 | 52.13018 | 6.62543 | 34850 ft | 470 kts | 100° |
| 2026-05-06 13:22 | 52.12001 | 6.72255 | 34854 ft | 470 kts | 101° |
| 2026-05-06 13:22 | 52.10916 | 6.82519 | 34840 ft | 470 kts | 101° |
| 2026-05-06 13:23 | 52.09802 | 6.92971 | 34846 ft | 470 kts | 101° |
| 2026-05-06 13:23 | 52.08678 | 7.03418 | 34840 ft | 470 kts | 101° |
| 2026-05-06 13:24 | 52.07548 | 7.13839 | 34823 ft | 470 kts | 101° |
| 2026-05-06 13:24 | 52.06411 | 7.24235 | 34814 ft | 471 kts | 101° |
| 2026-05-06 13:25 | 52.05254 | 7.34720 | 34816 ft | 471 kts | 101° |
| 2026-05-06 13:25 | 52.04090 | 7.45178 | 34830 ft | 472 kts | 101° |
| 2026-05-06 13:26 | 52.02923 | 7.55570 | 34808 ft | 472 kts | 101° |
| 2026-05-06 13:26 | 52.01785 | 7.65635 | 34817 ft | 473 kts | 102° |
| 2026-05-06 13:27 | 52.00655 | 7.75535 | 34828 ft | 474 kts | 102° |
| 2026-05-06 13:27 | 51.99465 | 7.85886 | 34812 ft | 473 kts | 102° |
| 2026-05-06 13:28 | 51.98252 | 7.96349 | 34807 ft | 475 kts | 102° |
| 2026-05-06 13:28 | 51.97022 | 8.06874 | 34820 ft | 475 kts | 102° |
| 2026-05-06 13:29 | 51.95790 | 8.17330 | 34816 ft | 475 kts | 102° |
| 2026-05-06 13:29 | 51.94544 | 8.27823 | 34801 ft | 475 kts | 103° |
| 2026-05-06 13:30 | 51.93290 | 8.38293 | 34805 ft | 470 kts | 103° |
| 2026-05-06 13:30 | 51.92704 | 8.43178 | 34770 ft | 456 kts | 103° |
| 2026-05-06 13:30 | 51.92142 | 8.47834 | 34771 ft | 442 kts | 103° |
| 2026-05-06 13:30 | 51.91562 | 8.52639 | 34767 ft | 427 kts | 103° |
| 2026-05-06 13:31 | 51.91041 | 8.56929 | 34739 ft | 413 kts | 103° |
| 2026-05-06 13:31 | 51.90522 | 8.61190 | 34653 ft | 401 kts | 103° |
| 2026-05-06 13:31 | 51.89986 | 8.65574 | 34361 ft | 395 kts | 104° |
| 2026-05-06 13:31 | 51.89452 | 8.69920 | 33993 ft | 393 kts | 104° |
| 2026-05-06 13:32 | 51.88919 | 8.74247 | 33559 ft | 392 kts | 103° |
| 2026-05-06 13:32 | 51.88385 | 8.78556 | 33112 ft | 392 kts | 103° |
| 2026-05-06 13:32 | 51.87856 | 8.82820 | 32639 ft | 390 kts | 102° |
| 2026-05-06 13:32 | 51.87318 | 8.87145 | 32153 ft | 388 kts | 102° |
| 2026-05-06 13:33 | 51.86814 | 8.91174 | 31672 ft | 387 kts | 102° |
| 2026-05-06 13:33 | 51.86311 | 8.95196 | 31180 ft | 387 kts | 101° |
| 2026-05-06 13:33 | 51.85861 | 8.98773 | 30714 ft | 386 kts | 101° |
| 2026-05-06 13:33 | 51.85430 | 9.02190 | 30282 ft | 385 kts | 101° |
| 2026-05-06 13:34 | 51.84893 | 9.06447 | 29648 ft | 386 kts | 101° |
| 2026-05-06 13:34 | 51.84370 | 9.10578 | 28992 ft | 388 kts | 102° |
| 2026-05-06 13:34 | 51.83830 | 9.14831 | 28283 ft | 391 kts | 102° |
| 2026-05-06 13:34 | 51.83277 | 9.19164 | 27588 ft | 394 kts | 102° |
| 2026-05-06 13:35 | 51.82721 | 9.23520 | 26921 ft | 396 kts | 103° |
| 2026-05-06 13:35 | 51.82167 | 9.27834 | 26240 ft | 398 kts | 103° |
| 2026-05-06 13:35 | 51.81609 | 9.32177 | 25538 ft | 400 kts | 103° |
| 2026-05-06 13:35 | 51.81036 | 9.36613 | 24805 ft | 403 kts | 103° |
| 2026-05-06 13:36 | 51.80497 | 9.40778 | 24135 ft | 406 kts | 103° |
| 2026-05-06 13:36 | 51.79936 | 9.45095 | 23413 ft | 409 kts | 103° |
| 2026-05-06 13:36 | 51.79394 | 9.49260 | 22863 ft | 408 kts | 104° |
| 2026-05-06 13:36 | 51.78856 | 9.53382 | 22764 ft | 406 kts | 104° |
| 2026-05-06 13:37 | 51.78292 | 9.57686 | 22733 ft | 408 kts | 104° |
| 2026-05-06 13:37 | 51.77808 | 9.61372 | 22529 ft | 404 kts | 104° |
| 2026-05-06 13:37 | 51.77220 | 9.65834 | 21829 ft | 407 kts | 105° |
| 2026-05-06 13:37 | 51.76626 | 9.70325 | 20852 ft | 417 kts | 105° |
| 2026-05-06 13:38 | 51.76014 | 9.74932 | 19892 ft | 424 kts | 105° |
| 2026-05-06 13:38 | 51.75399 | 9.79552 | 19309 ft | 421 kts | 105° |
| 2026-05-06 13:38 | 51.74795 | 9.84088 | 18879 ft | 415 kts | 105° |
| 2026-05-06 13:38 | 51.74190 | 9.88610 | 18364 ft | 412 kts | 105° |
| 2026-05-06 13:39 | 51.73588 | 9.93099 | 17774 ft | 410 kts | 105° |
| 2026-05-06 13:39 | 51.72989 | 9.97547 | 17247 ft | 407 kts | 105° |
| 2026-05-06 13:39 | 51.72389 | 10.01996 | 16972 ft | 400 kts | 105° |
| 2026-05-06 13:39 | 51.71793 | 10.06393 | 16947 ft | 403 kts | 105° |
| 2026-05-06 13:40 | 51.71197 | 10.10776 | 16970 ft | 404 kts | 105° |
| 2026-05-06 13:40 | 51.70598 | 10.15174 | 16952 ft | 404 kts | 105° |
| 2026-05-06 13:40 | 51.69997 | 10.19569 | 16952 ft | 404 kts | 105° |
| 2026-05-06 13:40 | 51.69387 | 10.24013 | 16935 ft | 404 kts | 105° |
| 2026-05-06 13:41 | 51.68782 | 10.28408 | 16969 ft | 405 kts | 105° |
| 2026-05-06 13:41 | 51.68173 | 10.32830 | 16957 ft | 403 kts | 105° |
| 2026-05-06 13:41 | 51.67569 | 10.37188 | 16942 ft | 405 kts | 105° |
| 2026-05-06 13:41 | 51.66952 | 10.41638 | 16949 ft | 404 kts | 105° |
| 2026-05-06 13:42 | 51.66345 | 10.45998 | 16942 ft | 403 kts | 105° |
| 2026-05-06 13:42 | 51.65733 | 10.50386 | 16727 ft | 397 kts | 105° |
| 2026-05-06 13:42 | 51.65131 | 10.54685 | 16168 ft | 397 kts | 105° |
| 2026-05-06 13:42 | 51.64526 | 10.58995 | 15669 ft | 394 kts | 105° |
| 2026-05-06 13:43 | 51.63934 | 10.63208 | 15544 ft | 381 kts | 105° |
| 2026-05-06 13:43 | 51.63363 | 10.67271 | 15459 ft | 366 kts | 106° |
| 2026-05-06 13:43 | 51.62809 | 10.71193 | 15399 ft | 352 kts | 106° |
| 2026-05-06 13:43 | 51.62279 | 10.74942 | 15360 ft | 338 kts | 106° |
| 2026-05-06 13:44 | 51.61769 | 10.78538 | 15288 ft | 325 kts | 106° |
| 2026-05-06 13:44 | 51.61285 | 10.81943 | 14999 ft | 322 kts | 106° |
| 2026-05-06 13:44 | 51.60784 | 10.85441 | 14527 ft | 322 kts | 106° |
| 2026-05-06 13:44 | 51.60296 | 10.88846 | 14127 ft | 321 kts | 106° |
| 2026-05-06 13:45 | 51.59795 | 10.92335 | 13786 ft | 319 kts | 106° |
| 2026-05-06 13:45 | 51.58806 | 10.99193 | 13079 ft | 315 kts | 106° |
| 2026-05-06 13:45 | 51.58311 | 11.02619 | 12717 ft | 314 kts | 106° |
| 2026-05-06 13:46 | 51.57818 | 11.06014 | 12358 ft | 311 kts | 105° |
| 2026-05-06 13:46 | 51.57330 | 11.09376 | 11994 ft | 310 kts | 105° |
| 2026-05-06 13:46 | 51.56841 | 11.12731 | 11640 ft | 309 kts | 105° |
| 2026-05-06 13:46 | 51.56353 | 11.16074 | 11300 ft | 307 kts | 105° |
| 2026-05-06 13:47 | 51.55868 | 11.19386 | 10973 ft | 305 kts | 105° |
| 2026-05-06 13:47 | 51.55387 | 11.22668 | 10604 ft | 304 kts | 105° |
| 2026-05-06 13:47 | 51.54902 | 11.25973 | 10268 ft | 302 kts | 105° |
| 2026-05-06 13:47 | 51.54421 | 11.29240 | 9988 ft | 298 kts | 105° |
| 2026-05-06 13:48 | 51.53941 | 11.32487 | 9968 ft | 302 kts | 105° |
| 2026-05-06 13:48 | 51.53462 | 11.35726 | 9976 ft | 302 kts | 105° |
| 2026-05-06 13:48 | 51.52976 | 11.39008 | 9943 ft | 295 kts | 105° |
| 2026-05-06 13:48 | 51.52514 | 11.42130 | 9896 ft | 282 kts | 105° |
| 2026-05-06 13:49 | 51.52066 | 11.45142 | 9698 ft | 277 kts | 106° |
| 2026-05-06 13:49 | 51.51622 | 11.48114 | 9375 ft | 276 kts | 105° |
| 2026-05-06 13:49 | 51.51340 | 11.51183 | 9009 ft | 278 kts | 90° |
| 2026-05-06 13:49 | 51.51452 | 11.54256 | 8707 ft | 276 kts | 86° |
| 2026-05-06 13:50 | 51.51621 | 11.57278 | 8418 ft | 275 kts | 86° |
| 2026-05-06 13:50 | 51.51787 | 11.60316 | 8125 ft | 272 kts | 86° |
| 2026-05-06 13:50 | 51.51947 | 11.63344 | 7829 ft | 271 kts | 86° |
| 2026-05-06 13:50 | 51.52104 | 11.66372 | 7511 ft | 270 kts | 87° |
| 2026-05-06 13:51 | 51.52256 | 11.69337 | 7231 ft | 268 kts | 86° |
| 2026-05-06 13:51 | 51.52401 | 11.72170 | 6944 ft | 267 kts | 86° |
| 2026-05-06 13:51 | 51.52527 | 11.74648 | 6681 ft | 266 kts | 86° |
| 2026-05-06 13:51 | 51.52676 | 11.77576 | 6410 ft | 264 kts | 86° |
| 2026-05-06 13:52 | 51.52824 | 11.80518 | 6119 ft | 263 kts | 86° |
| 2026-05-06 13:52 | 51.52969 | 11.83415 | 5885 ft | 259 kts | 86° |
| 2026-05-06 13:52 | 51.53112 | 11.86273 | 5622 ft | 257 kts | 86° |
| 2026-05-06 13:52 | 51.53252 | 11.89102 | 5353 ft | 254 kts | 85° |
| 2026-05-06 13:53 | 51.53390 | 11.91899 | 5053 ft | 253 kts | 85° |
| 2026-05-06 13:53 | 51.53527 | 11.94668 | 4989 ft | 250 kts | 85° |
| 2026-05-06 13:53 | 51.53664 | 11.97461 | 4978 ft | 250 kts | 85° |
| 2026-05-06 13:53 | 51.53799 | 12.00251 | 4982 ft | 252 kts | 85° |
| 2026-05-06 13:54 | 51.53937 | 12.03092 | 4973 ft | 255 kts | 85° |
| 2026-05-06 13:54 | 51.54075 | 12.05943 | 4974 ft | 258 kts | 85° |
| 2026-05-06 13:54 | 51.54211 | 12.08783 | 4988 ft | 257 kts | 85° |
| 2026-05-06 13:54 | 51.54347 | 12.11633 | 4984 ft | 254 kts | 85° |
| 2026-05-06 13:55 | 51.54481 | 12.14466 | 4988 ft | 254 kts | 85° |
| 2026-05-06 13:55 | 51.54615 | 12.17287 | 4985 ft | 256 kts | 85° |
| 2026-05-06 13:55 | 51.54750 | 12.20156 | 4982 ft | 257 kts | 85° |
| 2026-05-06 13:55 | 51.54882 | 12.23005 | 4979 ft | 257 kts | 85° |
| 2026-05-06 13:56 | 51.55014 | 12.25839 | 4990 ft | 256 kts | 85° |
| 2026-05-06 13:56 | 51.55146 | 12.28695 | 4993 ft | 255 kts | 85° |
| 2026-05-06 13:56 | 51.55275 | 12.31483 | 4826 ft | 251 kts | 85° |
| 2026-05-06 13:56 | 51.55402 | 12.34281 | 4511 ft | 252 kts | 84° |
| 2026-05-06 13:57 | 51.55531 | 12.37113 | 4215 ft | 251 kts | 84° |
| 2026-05-06 13:57 | 51.55656 | 12.39870 | 4003 ft | 247 kts | 84° |
| 2026-05-06 13:57 | 51.55779 | 12.42612 | 3714 ft | 246 kts | 83° |
| 2026-05-06 13:57 | 51.55902 | 12.45349 | 3420 ft | 246 kts | 83° |
| 2026-05-06 13:58 | 51.56024 | 12.48084 | 3146 ft | 245 kts | 83° |
| 2026-05-06 13:58 | 51.56144 | 12.50786 | 2993 ft | 244 kts | 83° |
| 2026-05-06 13:58 | 51.56266 | 12.53542 | 2982 ft | 246 kts | 83° |
| 2026-05-06 13:58 | 51.56164 | 12.56232 | 2966 ft | 244 kts | 107° |
| 2026-05-06 13:59 | 51.55283 | 12.58454 | 2964 ft | 232 kts | 139° |
| 2026-05-06 13:59 | 51.53867 | 12.59533 | 2958 ft | 225 kts | 171° |
| 2026-05-06 13:59 | 51.52262 | 12.59896 | 2980 ft | 225 kts | 174° |
| 2026-05-06 13:59 | 51.50692 | 12.60184 | 2981 ft | 226 kts | 174° |
| 2026-05-06 14:00 | 51.49141 | 12.60469 | 2982 ft | 225 kts | 174° |
| 2026-05-06 14:00 | 51.47576 | 12.60758 | 2980 ft | 224 kts | 174° |
| 2026-05-06 14:00 | 51.46053 | 12.60586 | 2964 ft | 221 kts | 204° |
| 2026-05-06 14:00 | 51.44823 | 12.59163 | 2983 ft | 219 kts | 231° |
| 2026-05-06 14:01 | 51.43864 | 12.57288 | 3007 ft | 215 kts | 234° |
| 2026-05-06 14:01 | 51.42970 | 12.55463 | 2973 ft | 200 kts | 234° |
| 2026-05-06 14:01 | 51.42336 | 12.53619 | 2960 ft | 185 kts | 262° |
| 2026-05-06 14:01 | 51.42247 | 12.51550 | 2980 ft | 187 kts | 270° |
| 2026-05-06 14:02 | 51.42268 | 12.49466 | 2986 ft | 187 kts | 274° |
| 2026-05-06 14:02 | 51.42299 | 12.47375 | 2982 ft | 188 kts | 269° |
| 2026-05-06 14:02 | 51.42210 | 12.45324 | 2979 ft | 187 kts | 267° |
| 2026-05-06 14:02 | 51.42209 | 12.43212 | 2731 ft | 188 kts | 271° |
| 2026-05-06 14:03 | 51.42150 | 12.41148 | 2469 ft | 185 kts | 265° |
| 2026-05-06 14:03 | 51.42027 | 12.39094 | 2218 ft | 187 kts | 267° |
| 2026-05-06 14:03 | 51.41932 | 12.37044 | 1956 ft | 185 kts | 268° |
| 2026-05-06 14:03 | 51.41844 | 12.35031 | 1757 ft | 175 kts | 268° |
| 2026-05-06 14:04 | 51.41729 | 12.33067 | 1453 ft | 176 kts | 267° |
| 2026-05-06 14:04 | 51.41643 | 12.31177 | 1175 ft | 165 kts | 268° |
| 2026-05-06 14:04 | 51.41578 | 12.29417 | 942 ft | 153 kts | 267° |
| 2026-05-06 14:04 | 51.41508 | 12.27906 | 762 ft | 151 kts | 266° |
| 2026-05-06 14:05 | 51.41447 | 12.26602 | 626 ft | 151 kts | 266° |
| 2026-05-06 14:05 | 51.41375 | 12.25069 | 488 ft | 148 kts | 266° |
| 2026-05-06 14:05 | 51.41309 | 12.23630 | 474 ft | 114 kts | 265° |
| 2026-05-06 14:05 | 51.41261 | 12.22606 | 474 ft | 70 kts | 266° |
| 2026-05-06 14:06 | 51.41232 | 12.22026 | 474 ft | 45 kts | 259° |
| 2026-05-06 14:06 | 51.41171 | 12.21762 | 474 ft | 15 kts | 239° |
| 2026-05-06 14:06 | 51.41120 | 12.21672 | 474 ft | 9 kts | 209° |
| 2026-05-06 14:06 | 51.41062 | 12.21681 | 474 ft | 8 kts | 137° |
| 2026-05-06 14:07 | 51.41050 | 12.21771 | 474 ft | 8 kts | 86° |
| 2026-05-06 14:07 | 51.41055 | 12.21876 | 474 ft | 9 kts | 85° |
| 2026-05-06 14:07 | 51.41060 | 12.21977 | 474 ft | 9 kts | 86° |
| 2026-05-06 14:07 | 51.41065 | 12.22077 | 474 ft | 8 kts | 85° |
| 2026-05-06 14:08 | 51.41069 | 12.22182 | 474 ft | 8 kts | 85° |
| 2026-05-06 14:08 | 51.41072 | 12.22231 | 474 ft | 3 kts | 86° |
| 2026-05-06 14:08 | 51.41050 | 12.22293 | 474 ft | 7 kts | 145° |
| 2026-05-06 14:08 | 51.41011 | 12.22346 | 474 ft | 7 kts | 123° |
| 2026-05-06 14:09 | 51.40997 | 12.22423 | 474 ft | 7 kts | 95° |
| 2026-05-06 14:09 | 51.40997 | 12.22514 | 474 ft | 9 kts | 87° |
| 2026-05-06 14:09 | 51.41003 | 12.22626 | 474 ft | 10 kts | 85° |
| 2026-05-06 14:09 | 51.41008 | 12.22747 | 474 ft | 11 kts | 85° |
| 2026-05-06 14:10 | 51.41014 | 12.22875 | 474 ft | 11 kts | 86° |
| 2026-05-06 14:10 | 51.41020 | 12.23008 | 474 ft | 12 kts | 85° |
| 2026-05-06 14:10 | 51.41027 | 12.23154 | 474 ft | 13 kts | 85° |
| 2026-05-06 14:10 | 51.41034 | 12.23294 | 474 ft | 12 kts | 85° |
| 2026-05-06 14:11 | 51.41040 | 12.23430 | 474 ft | 12 kts | 85° |
| 2026-05-06 14:11 | 51.41047 | 12.23588 | 474 ft | 16 kts | 85° |
| 2026-05-06 14:11 | 51.41056 | 12.23765 | 474 ft | 15 kts | 86° |
| 2026-05-06 14:11 | 51.41063 | 12.23927 | 474 ft | 14 kts | 85° |
| 2026-05-06 14:12 | 51.41070 | 12.24080 | 474 ft | 13 kts | 85° |
| 2026-05-06 14:12 | 51.41077 | 12.24219 | 474 ft | 12 kts | 86° |
| 2026-05-06 14:12 | 51.41082 | 12.24349 | 474 ft | 11 kts | 85° |
| 2026-05-06 14:12 | 51.41088 | 12.24471 | 474 ft | 10 kts | 85° |
| 2026-05-06 14:13 | 51.41092 | 12.24566 | 474 ft | 6 kts | 85° |
| 2026-05-06 14:13 | 51.41086 | 12.24628 | 474 ft | 5 kts | 130° |
| 2026-05-06 14:13 | 51.41050 | 12.24651 | 474 ft | 6 kts | 175° |
| 2026-05-06 14:13 | 51.41001 | 12.24656 | 474 ft | 7 kts | 176° |
| 2026-05-06 14:14 | 51.40942 | 12.24663 | 474 ft | 8 kts | 175° |
| 2026-05-06 14:14 | 51.40886 | 12.24669 | 474 ft | 6 kts | 176° |
| 2026-05-06 14:14 | 51.40844 | 12.24674 | 474 ft | 6 kts | 175° |
| 2026-05-06 14:14 | 51.40807 | 12.24678 | 474 ft | 3 kts | 176° |
| 2026-05-06 14:15 | 51.40785 | 12.24680 | 474 ft | 2 kts | 176° |
| 2026-05-06 14:15 | 51.40768 | 12.24684 | 474 ft | 2 kts | 160° |
| 2026-05-06 14:15 | 51.40754 | 12.24708 | 474 ft | 3 kts | 112° |
| 2026-05-06 14:15 | 51.40751 | 12.24750 | 474 ft | 3 kts | 86° |
| 2026-05-06 14:16 | 51.40753 | 12.24792 | 474 ft | 3 kts | 86° |
| 2026-05-06 14:16 | 51.40754 | 12.24825 | 474 ft | 2 kts | 86° |
| 2026-05-06 14:16 | 51.40755 | 12.24847 | 474 ft | 1 kts | 86° |
| 2026-05-06 14:16 | 51.40756 | 12.24858 | 474 ft | 0 kts | 86° |